sensor_id;sensor_type;location;lat;lon;timestamp;P1;durP1;ratioP1;P2;durP2;ratioP2
20294;SDS011;10306;52.128;5.208;2022-11-06T00:00:32;3.60;;;3.40;;
20294;SDS011;10306;52.128;5.208;2022-11-06T00:02:59;7.17;;;3.80;;
20294;SDS011;10306;52.128;5.208;2022-11-06T00:05:25;5.37;;;3.57;;
20294;SDS011;10306;52.128;5.208;2022-11-06T00:08:10;3.60;;;3.30;;
20294;SDS011;10306;52.128;5.208;2022-11-06T00:10:36;5.77;;;3.10;;
20294;SDS011;10306;52.128;5.208;2022-11-06T00:13:02;3.60;;;3.30;;
20294;SDS011;10306;52.128;5.208;2022-11-06T00:15:28;3.97;;;3.43;;
20294;SDS011;10306;52.128;5.208;2022-11-06T00:17:54;3.73;;;3.50;;
20294;SDS011;10306;52.128;5.208;2022-11-06T00:20:20;6.47;;;3.73;;
20294;SDS011;10306;52.128;5.208;2022-11-06T00:22:46;5.23;;;3.13;;
20294;SDS011;10306;52.128;5.208;2022-11-06T00:25:12;6.87;;;3.20;;
20294;SDS011;10306;52.128;5.208;2022-11-06T00:27:38;4.80;;;3.20;;
20294;SDS011;10306;52.128;5.208;2022-11-06T00:30:07;4.30;;;3.20;;
20294;SDS011;10306;52.128;5.208;2022-11-06T00:32:33;3.53;;;3.30;;
20294;SDS011;10306;52.128;5.208;2022-11-06T00:34:59;4.53;;;3.37;;
20294;SDS011;10306;52.128;5.208;2022-11-06T00:37:25;3.60;;;3.27;;
20294;SDS011;10306;52.128;5.208;2022-11-06T00:39:51;3.13;;;2.87;;
20294;SDS011;10306;52.128;5.208;2022-11-06T00:42:17;3.53;;;2.77;;
20294;SDS011;10306;52.128;5.208;2022-11-06T00:44:43;4.83;;;3.73;;
20294;SDS011;10306;52.128;5.208;2022-11-06T00:47:09;4.83;;;3.30;;
20294;SDS011;10306;52.128;5.208;2022-11-06T00:49:36;3.23;;;3.03;;
20294;SDS011;10306;52.128;5.208;2022-11-06T00:52:02;3.63;;;3.33;;
20294;SDS011;10306;52.128;5.208;2022-11-06T00:54:28;4.27;;;3.20;;
20294;SDS011;10306;52.128;5.208;2022-11-06T00:56:54;4.63;;;3.77;;
20294;SDS011;10306;52.128;5.208;2022-11-06T00:59:20;3.43;;;3.23;;
20294;SDS011;10306;52.128;5.208;2022-11-06T01:01:46;5.03;;;3.90;;
20294;SDS011;10306;52.128;5.208;2022-11-06T01:04:13;4.07;;;3.67;;
20294;SDS011;10306;52.128;5.208;2022-11-06T01:06:40;7.20;;;3.70;;
20294;SDS011;10306;52.128;5.208;2022-11-06T01:09:07;5.97;;;3.27;;
20294;SDS011;10306;52.128;5.208;2022-11-06T01:11:37;3.70;;;3.43;;
20294;SDS011;10306;52.128;5.208;2022-11-06T01:14:04;5.77;;;3.20;;
20294;SDS011;10306;52.128;5.208;2022-11-06T01:16:31;5.43;;;3.43;;
20294;SDS011;10306;52.128;5.208;2022-11-06T01:18:57;6.13;;;3.60;;
20294;SDS011;10306;52.128;5.208;2022-11-06T01:21:26;5.47;;;3.50;;
20294;SDS011;10306;52.128;5.208;2022-11-06T01:24:03;4.67;;;3.40;;
20294;SDS011;10306;52.128;5.208;2022-11-06T01:26:29;4.17;;;3.80;;
20294;SDS011;10306;52.128;5.208;2022-11-06T01:28:55;5.20;;;4.13;;
20294;SDS011;10306;52.128;5.208;2022-11-06T01:31:23;4.73;;;3.70;;
20294;SDS011;10306;52.128;5.208;2022-11-06T01:33:49;5.13;;;3.97;;
20294;SDS011;10306;52.128;5.208;2022-11-06T01:36:16;8.03;;;3.63;;
20294;SDS011;10306;52.128;5.208;2022-11-06T01:38:45;8.70;;;3.70;;
20294;SDS011;10306;52.128;5.208;2022-11-06T01:41:12;4.13;;;3.70;;
20294;SDS011;10306;52.128;5.208;2022-11-06T01:43:54;5.83;;;4.03;;
20294;SDS011;10306;52.128;5.208;2022-11-06T01:46:21;4.67;;;3.50;;
20294;SDS011;10306;52.128;5.208;2022-11-06T01:48:52;5.73;;;3.13;;
20294;SDS011;10306;52.128;5.208;2022-11-06T01:51:19;4.60;;;3.27;;
20294;SDS011;10306;52.128;5.208;2022-11-06T01:53:45;4.30;;;3.23;;
20294;SDS011;10306;52.128;5.208;2022-11-06T01:56:11;3.63;;;3.20;;
20294;SDS011;10306;52.128;5.208;2022-11-06T01:58:38;3.17;;;2.90;;
20294;SDS011;10306;52.128;5.208;2022-11-06T02:01:06;3.77;;;3.23;;
20294;SDS011;10306;52.128;5.208;2022-11-06T02:03:32;3.83;;;3.20;;
20294;SDS011;10306;52.128;5.208;2022-11-06T02:05:58;4.70;;;3.10;;
20294;SDS011;10306;52.128;5.208;2022-11-06T02:08:24;8.30;;;3.13;;
20294;SDS011;10306;52.128;5.208;2022-11-06T02:10:50;3.97;;;3.10;;
20294;SDS011;10306;52.128;5.208;2022-11-06T02:26:23;8.63;;;3.67;;
20294;SDS011;10306;52.128;5.208;2022-11-06T02:29:04;4.63;;;2.70;;
20294;SDS011;10306;52.128;5.208;2022-11-06T02:31:33;3.33;;;3.03;;
20294;SDS011;10306;52.128;5.208;2022-11-06T02:34:00;8.67;;;3.00;;
20294;SDS011;10306;52.128;5.208;2022-11-06T02:36:35;4.03;;;2.70;;
20294;SDS011;10306;52.128;5.208;2022-11-06T02:39:03;3.47;;;2.70;;
20294;SDS011;10306;52.128;5.208;2022-11-06T02:41:33;3.90;;;3.00;;
20294;SDS011;10306;52.128;5.208;2022-11-06T02:44:00;5.83;;;3.40;;
20294;SDS011;10306;52.128;5.208;2022-11-06T02:46:31;5.43;;;3.00;;
20294;SDS011;10306;52.128;5.208;2022-11-06T02:49:00;3.23;;;2.90;;
20294;SDS011;10306;52.128;5.208;2022-11-06T02:51:29;3.00;;;2.80;;
20294;SDS011;10306;52.128;5.208;2022-11-06T02:53:58;3.27;;;2.97;;
20294;SDS011;10306;52.128;5.208;2022-11-06T02:56:25;2.93;;;2.73;;
20294;SDS011;10306;52.128;5.208;2022-11-06T02:58:53;4.13;;;2.93;;
20294;SDS011;10306;52.128;5.208;2022-11-06T03:01:23;3.10;;;2.90;;
20294;SDS011;10306;52.128;5.208;2022-11-06T03:03:52;4.13;;;3.00;;
20294;SDS011;10306;52.128;5.208;2022-11-06T03:06:21;3.17;;;2.90;;
20294;SDS011;10306;52.128;5.208;2022-11-06T03:08:54;4.00;;;3.20;;
20294;SDS011;10306;52.128;5.208;2022-11-06T03:11:24;5.40;;;2.63;;
20294;SDS011;10306;52.128;5.208;2022-11-06T03:14:12;2.77;;;2.57;;
20294;SDS011;10306;52.128;5.208;2022-11-06T03:16:59;5.97;;;2.80;;
20294;SDS011;10306;52.128;5.208;2022-11-06T03:19:28;3.10;;;2.80;;
20294;SDS011;10306;52.128;5.208;2022-11-06T03:22:10;3.40;;;3.07;;
20294;SDS011;10306;52.128;5.208;2022-11-06T03:24:49;9.63;;;2.60;;
20294;SDS011;10306;52.128;5.208;2022-11-06T03:27:21;5.93;;;2.87;;
20294;SDS011;10306;52.128;5.208;2022-11-06T03:29:48;4.30;;;2.80;;
20294;SDS011;10306;52.128;5.208;2022-11-06T03:32:19;3.60;;;3.00;;
20294;SDS011;10306;52.128;5.208;2022-11-06T03:37:34;8.43;;;2.70;;
20294;SDS011;10306;52.128;5.208;2022-11-06T03:40:02;3.70;;;3.40;;
20294;SDS011;10306;52.128;5.208;2022-11-06T03:42:30;8.70;;;3.30;;
20294;SDS011;10306;52.128;5.208;2022-11-06T03:44:57;4.47;;;2.47;;
20294;SDS011;10306;52.128;5.208;2022-11-06T03:47:28;3.00;;;2.50;;
20294;SDS011;10306;52.128;5.208;2022-11-06T03:49:58;5.70;;;2.97;;
20294;SDS011;10306;52.128;5.208;2022-11-06T03:52:36;4.67;;;2.90;;
20294;SDS011;10306;52.128;5.208;2022-11-06T03:55:04;7.67;;;2.77;;
20294;SDS011;10306;52.128;5.208;2022-11-06T03:57:36;3.80;;;2.67;;
20294;SDS011;10306;52.128;5.208;2022-11-06T04:00:04;2.80;;;2.60;;
20294;SDS011;10306;52.128;5.208;2022-11-06T04:02:30;4.80;;;2.67;;
20294;SDS011;10306;52.128;5.208;2022-11-06T04:04:59;2.50;;;2.30;;
20294;SDS011;10306;52.128;5.208;2022-11-06T04:07:30;4.93;;;2.60;;
20294;SDS011;10306;52.128;5.208;2022-11-06T04:09:59;4.83;;;2.40;;
20294;SDS011;10306;52.128;5.208;2022-11-06T04:12:45;6.40;;;2.70;;
20294;SDS011;10306;52.128;5.208;2022-11-06T04:15:32;4.33;;;2.40;;
20294;SDS011;10306;52.128;5.208;2022-11-06T04:17:59;2.20;;;2.10;;
20294;SDS011;10306;52.128;5.208;2022-11-06T04:20:26;3.40;;;2.30;;
20294;SDS011;10306;52.128;5.208;2022-11-06T04:23:51;2.87;;;2.50;;
20294;SDS011;10306;52.128;5.208;2022-11-06T04:26:14;3.80;;;2.30;;
20294;SDS011;10306;52.128;5.208;2022-11-06T04:34:07;3.73;;;2.50;;
20294;SDS011;10306;52.128;5.208;2022-11-06T04:36:59;3.67;;;2.07;;
20294;SDS011;10306;52.128;5.208;2022-11-06T04:39:48;2.90;;;2.43;;
20294;SDS011;10306;52.128;5.208;2022-11-06T04:42:23;2.50;;;2.30;;
20294;SDS011;10306;52.128;5.208;2022-11-06T04:44:52;2.63;;;2.43;;
20294;SDS011;10306;52.128;5.208;2022-11-06T04:47:21;1.90;;;1.80;;
20294;SDS011;10306;52.128;5.208;2022-11-06T04:49:49;2.70;;;2.20;;
20294;SDS011;10306;52.128;5.208;2022-11-06T04:52:17;5.50;;;2.60;;
20294;SDS011;10306;52.128;5.208;2022-11-06T04:54:45;5.23;;;2.50;;
20294;SDS011;10306;52.128;5.208;2022-11-06T04:57:11;2.53;;;2.07;;
20294;SDS011;10306;52.128;5.208;2022-11-06T04:59:37;3.37;;;2.40;;
20294;SDS011;10306;52.128;5.208;2022-11-06T05:02:04;4.30;;;1.97;;
20294;SDS011;10306;52.128;5.208;2022-11-06T05:04:30;5.03;;;2.40;;
20294;SDS011;10306;52.128;5.208;2022-11-06T05:06:56;3.53;;;2.00;;
20294;SDS011;10306;52.128;5.208;2022-11-06T05:09:22;6.60;;;2.87;;
20294;SDS011;10306;52.128;5.208;2022-11-06T05:11:49;4.83;;;2.43;;
20294;SDS011;10306;52.128;5.208;2022-11-06T05:14:15;2.40;;;1.83;;
20294;SDS011;10306;52.128;5.208;2022-11-06T05:16:41;2.03;;;1.83;;
20294;SDS011;10306;52.128;5.208;2022-11-06T05:19:07;3.93;;;2.50;;
20294;SDS011;10306;52.128;5.208;2022-11-06T05:21:33;3.37;;;2.23;;
20294;SDS011;10306;52.128;5.208;2022-11-06T05:24:17;3.33;;;2.13;;
20294;SDS011;10306;52.128;5.208;2022-11-06T05:26:43;2.80;;;2.10;;
20294;SDS011;10306;52.128;5.208;2022-11-06T05:29:10;4.73;;;2.20;;
20294;SDS011;10306;52.128;5.208;2022-11-06T05:31:36;3.13;;;1.90;;
20294;SDS011;10306;52.128;5.208;2022-11-06T05:34:02;2.10;;;1.90;;
20294;SDS011;10306;52.128;5.208;2022-11-06T05:36:28;2.50;;;2.07;;
20294;SDS011;10306;52.128;5.208;2022-11-06T05:38:54;2.73;;;1.80;;
20294;SDS011;10306;52.128;5.208;2022-11-06T05:41:20;5.53;;;2.27;;
20294;SDS011;10306;52.128;5.208;2022-11-06T05:43:46;2.57;;;1.80;;
20294;SDS011;10306;52.128;5.208;2022-11-06T05:46:12;4.03;;;2.23;;
20294;SDS011;10306;52.128;5.208;2022-11-06T05:48:38;3.53;;;2.10;;
20294;SDS011;10306;52.128;5.208;2022-11-06T05:51:05;4.83;;;2.43;;
20294;SDS011;10306;52.128;5.208;2022-11-06T05:53:31;5.07;;;1.77;;
20294;SDS011;10306;52.128;5.208;2022-11-06T05:55:57;3.50;;;1.80;;
20294;SDS011;10306;52.128;5.208;2022-11-06T05:58:24;4.03;;;2.00;;
20294;SDS011;10306;52.128;5.208;2022-11-06T06:00:50;2.23;;;1.73;;
20294;SDS011;10306;52.128;5.208;2022-11-06T06:03:16;2.30;;;1.67;;
20294;SDS011;10306;52.128;5.208;2022-11-06T06:05:42;2.20;;;2.10;;
20294;SDS011;10306;52.128;5.208;2022-11-06T06:08:08;2.97;;;1.93;;
20294;SDS011;10306;52.128;5.208;2022-11-06T06:10:33;2.43;;;1.97;;
20294;SDS011;10306;52.128;5.208;2022-11-06T06:12:59;1.73;;;1.63;;
20294;SDS011;10306;52.128;5.208;2022-11-06T06:15:25;3.80;;;2.47;;
20294;SDS011;10306;52.128;5.208;2022-11-06T06:17:51;8.13;;;2.00;;
20294;SDS011;10306;52.128;5.208;2022-11-06T06:20:17;2.87;;;2.10;;
20294;SDS011;10306;52.128;5.208;2022-11-06T06:22:51;1.80;;;1.70;;
20294;SDS011;10306;52.128;5.208;2022-11-06T06:25:17;4.67;;;2.07;;
20294;SDS011;10306;52.128;5.208;2022-11-06T06:27:42;2.30;;;2.10;;
20294;SDS011;10306;52.128;5.208;2022-11-06T06:30:09;7.00;;;2.27;;
20294;SDS011;10306;52.128;5.208;2022-11-06T06:32:35;4.07;;;2.27;;
20294;SDS011;10306;52.128;5.208;2022-11-06T06:35:01;3.60;;;1.90;;
20294;SDS011;10306;52.128;5.208;2022-11-06T06:37:27;2.80;;;2.07;;
20294;SDS011;10306;52.128;5.208;2022-11-06T06:39:53;1.93;;;1.83;;
20294;SDS011;10306;52.128;5.208;2022-11-06T06:42:19;3.27;;;2.13;;
20294;SDS011;10306;52.128;5.208;2022-11-06T06:44:45;3.43;;;2.30;;
20294;SDS011;10306;52.128;5.208;2022-11-06T06:47:11;2.70;;;2.17;;
20294;SDS011;10306;52.128;5.208;2022-11-06T06:49:42;4.33;;;2.30;;
20294;SDS011;10306;52.128;5.208;2022-11-06T06:52:08;2.97;;;1.97;;
20294;SDS011;10306;52.128;5.208;2022-11-06T06:54:34;2.80;;;1.93;;
20294;SDS011;10306;52.128;5.208;2022-11-06T06:57:00;5.27;;;2.20;;
20294;SDS011;10306;52.128;5.208;2022-11-06T06:59:26;6.73;;;2.40;;
20294;SDS011;10306;52.128;5.208;2022-11-06T07:01:53;5.37;;;2.50;;
20294;SDS011;10306;52.128;5.208;2022-11-06T07:04:19;2.87;;;1.87;;
20294;SDS011;10306;52.128;5.208;2022-11-06T07:06:45;2.37;;;2.27;;
20294;SDS011;10306;52.128;5.208;2022-11-06T07:09:11;2.13;;;2.00;;
20294;SDS011;10306;52.128;5.208;2022-11-06T07:11:37;2.93;;;2.00;;
20294;SDS011;10306;52.128;5.208;2022-11-06T07:14:03;2.93;;;2.00;;
20294;SDS011;10306;52.128;5.208;2022-11-06T07:16:29;3.73;;;2.07;;
20294;SDS011;10306;52.128;5.208;2022-11-06T07:18:56;3.80;;;2.33;;
20294;SDS011;10306;52.128;5.208;2022-11-06T07:21:22;4.77;;;2.23;;
20294;SDS011;10306;52.128;5.208;2022-11-06T07:23:48;4.57;;;2.30;;
20294;SDS011;10306;52.128;5.208;2022-11-06T07:26:14;3.13;;;2.10;;
20294;SDS011;10306;52.128;5.208;2022-11-06T07:28:40;2.90;;;1.90;;
20294;SDS011;10306;52.128;5.208;2022-11-06T07:31:06;3.17;;;2.27;;
20294;SDS011;10306;52.128;5.208;2022-11-06T07:33:33;2.73;;;2.23;;
20294;SDS011;10306;52.128;5.208;2022-11-06T07:36:03;2.80;;;2.70;;
20294;SDS011;10306;52.128;5.208;2022-11-06T07:38:30;3.70;;;2.37;;
20294;SDS011;10306;52.128;5.208;2022-11-06T07:40:59;3.30;;;2.47;;
20294;SDS011;10306;52.128;5.208;2022-11-06T07:43:25;5.00;;;2.37;;
20294;SDS011;10306;52.128;5.208;2022-11-06T07:45:51;2.33;;;2.23;;
20294;SDS011;10306;52.128;5.208;2022-11-06T07:48:17;3.13;;;2.30;;
20294;SDS011;10306;52.128;5.208;2022-11-06T07:50:43;4.47;;;2.50;;
20294;SDS011;10306;52.128;5.208;2022-11-06T07:53:09;5.83;;;2.40;;
20294;SDS011;10306;52.128;5.208;2022-11-06T07:55:35;2.10;;;2.00;;
20294;SDS011;10306;52.128;5.208;2022-11-06T07:58:01;2.33;;;1.87;;
20294;SDS011;10306;52.128;5.208;2022-11-06T08:00:27;2.83;;;2.30;;
20294;SDS011;10306;52.128;5.208;2022-11-06T08:02:53;2.97;;;2.20;;
20294;SDS011;10306;52.128;5.208;2022-11-06T08:05:20;2.10;;;2.00;;
20294;SDS011;10306;52.128;5.208;2022-11-06T08:07:46;4.33;;;2.20;;
20294;SDS011;10306;52.128;5.208;2022-11-06T08:10:12;2.97;;;1.77;;
20294;SDS011;10306;52.128;5.208;2022-11-06T08:12:38;3.57;;;2.63;;
20294;SDS011;10306;52.128;5.208;2022-11-06T08:15:04;2.23;;;1.97;;
20294;SDS011;10306;52.128;5.208;2022-11-06T08:17:30;1.97;;;1.73;;
20294;SDS011;10306;52.128;5.208;2022-11-06T08:19:56;3.73;;;2.30;;
20294;SDS011;10306;52.128;5.208;2022-11-06T08:22:22;4.07;;;1.77;;
20294;SDS011;10306;52.128;5.208;2022-11-06T08:24:48;2.50;;;1.60;;
20294;SDS011;10306;52.128;5.208;2022-11-06T08:27:14;1.93;;;1.83;;
20294;SDS011;10306;52.128;5.208;2022-11-06T08:29:40;2.93;;;1.60;;
20294;SDS011;10306;52.128;5.208;2022-11-06T08:32:06;3.80;;;2.00;;
20294;SDS011;10306;52.128;5.208;2022-11-06T08:34:33;1.77;;;1.60;;
20294;SDS011;10306;52.128;5.208;2022-11-06T08:36:59;1.77;;;1.50;;
20294;SDS011;10306;52.128;5.208;2022-11-06T08:39:25;3.00;;;1.50;;
20294;SDS011;10306;52.128;5.208;2022-11-06T08:41:51;2.37;;;1.80;;
20294;SDS011;10306;52.128;5.208;2022-11-06T08:44:17;2.23;;;1.73;;
20294;SDS011;10306;52.128;5.208;2022-11-06T08:46:43;3.00;;;1.80;;
20294;SDS011;10306;52.128;5.208;2022-11-06T08:49:09;4.43;;;2.00;;
20294;SDS011;10306;52.128;5.208;2022-11-06T08:51:35;1.57;;;1.47;;
20294;SDS011;10306;52.128;5.208;2022-11-06T08:54:01;1.57;;;1.40;;
20294;SDS011;10306;52.128;5.208;2022-11-06T08:56:27;5.37;;;1.83;;
20294;SDS011;10306;52.128;5.208;2022-11-06T08:58:53;3.30;;;1.70;;
20294;SDS011;10306;52.128;5.208;2022-11-06T09:01:19;2.57;;;1.70;;
20294;SDS011;10306;52.128;5.208;2022-11-06T09:03:47;2.10;;;1.63;;
20294;SDS011;10306;52.128;5.208;2022-11-06T09:06:13;1.87;;;1.50;;
20294;SDS011;10306;52.128;5.208;2022-11-06T09:08:39;2.37;;;1.50;;
20294;SDS011;10306;52.128;5.208;2022-11-06T09:11:05;2.97;;;1.77;;
20294;SDS011;10306;52.128;5.208;2022-11-06T09:13:31;1.67;;;1.57;;
20294;SDS011;10306;52.128;5.208;2022-11-06T09:15:58;1.43;;;1.33;;
20294;SDS011;10306;52.128;5.208;2022-11-06T09:18:24;2.60;;;1.50;;
20294;SDS011;10306;52.128;5.208;2022-11-06T09:20:56;2.17;;;1.53;;
20294;SDS011;10306;52.128;5.208;2022-11-06T09:23:22;3.70;;;1.20;;
20294;SDS011;10306;52.128;5.208;2022-11-06T09:25:48;3.13;;;1.47;;
20294;SDS011;10306;52.128;5.208;2022-11-06T09:28:14;3.07;;;1.40;;
20294;SDS011;10306;52.128;5.208;2022-11-06T09:30:41;3.90;;;1.47;;
20294;SDS011;10306;52.128;5.208;2022-11-06T09:33:07;4.10;;;1.90;;
20294;SDS011;10306;52.128;5.208;2022-11-06T09:35:33;4.00;;;1.70;;
20294;SDS011;10306;52.128;5.208;2022-11-06T09:38:06;3.23;;;1.33;;
20294;SDS011;10306;52.128;5.208;2022-11-06T09:40:39;5.73;;;1.43;;
20294;SDS011;10306;52.128;5.208;2022-11-06T09:43:10;1.80;;;1.20;;
20294;SDS011;10306;52.128;5.208;2022-11-06T09:45:41;2.40;;;1.40;;
20294;SDS011;10306;52.128;5.208;2022-11-06T09:48:12;1.43;;;1.30;;
20294;SDS011;10306;52.128;5.208;2022-11-06T09:50:46;6.00;;;1.50;;
20294;SDS011;10306;52.128;5.208;2022-11-06T09:53:17;2.90;;;1.40;;
20294;SDS011;10306;52.128;5.208;2022-11-06T09:55:43;2.07;;;1.20;;
20294;SDS011;10306;52.128;5.208;2022-11-06T10:01:14;2.03;;;1.57;;
20294;SDS011;10306;52.128;5.208;2022-11-06T10:03:46;1.73;;;1.37;;
20294;SDS011;10306;52.128;5.208;2022-11-06T10:06:19;1.50;;;1.40;;
20294;SDS011;10306;52.128;5.208;2022-11-06T10:08:45;1.17;;;1.10;;
20294;SDS011;10306;52.128;5.208;2022-11-06T10:19:10;1.63;;;1.53;;
20294;SDS011;10306;52.128;5.208;2022-11-06T10:21:45;5.87;;;1.93;;
20294;SDS011;10306;52.128;5.208;2022-11-06T10:26:53;1.03;;;1.03;;
20294;SDS011;10306;52.128;5.208;2022-11-06T10:29:27;1.50;;;1.30;;
20294;SDS011;10306;52.128;5.208;2022-11-06T10:34:38;4.57;;;1.33;;
20294;SDS011;10306;52.128;5.208;2022-11-06T10:37:05;1.37;;;1.17;;
20294;SDS011;10306;52.128;5.208;2022-11-06T10:39:33;1.90;;;1.10;;
20294;SDS011;10306;52.128;5.208;2022-11-06T10:42:14;2.43;;;1.30;;
20294;SDS011;10306;52.128;5.208;2022-11-06T10:47:17;2.60;;;1.10;;
20294;SDS011;10306;52.128;5.208;2022-11-06T10:49:44;1.40;;;1.10;;
20294;SDS011;10306;52.128;5.208;2022-11-06T10:54:48;2.20;;;1.33;;
20294;SDS011;10306;52.128;5.208;2022-11-06T10:59:46;2.07;;;1.60;;
20294;SDS011;10306;52.128;5.208;2022-11-06T11:02:22;1.30;;;1.03;;
20294;SDS011;10306;52.128;5.208;2022-11-06T11:04:49;4.70;;;1.10;;
20294;SDS011;10306;52.128;5.208;2022-11-06T11:07:15;3.30;;;1.43;;
20294;SDS011;10306;52.128;5.208;2022-11-06T11:09:41;3.07;;;1.30;;
20294;SDS011;10306;52.128;5.208;2022-11-06T11:12:30;1.67;;;1.50;;
20294;SDS011;10306;52.128;5.208;2022-11-06T11:15:30;1.10;;;1.00;;
20294;SDS011;10306;52.128;5.208;2022-11-06T11:20:35;1.63;;;1.20;;
20294;SDS011;10306;52.128;5.208;2022-11-06T11:23:21;1.20;;;1.00;;
20294;SDS011;10306;52.128;5.208;2022-11-06T11:25:52;0.90;;;0.90;;
20294;SDS011;10306;52.128;5.208;2022-11-06T11:28:28;2.93;;;1.27;;
20294;SDS011;10306;52.128;5.208;2022-11-06T11:33:26;1.80;;;1.30;;
20294;SDS011;10306;52.128;5.208;2022-11-06T11:35:52;1.77;;;0.90;;
20294;SDS011;10306;52.128;5.208;2022-11-06T11:38:19;1.63;;;1.20;;
20294;SDS011;10306;52.128;5.208;2022-11-06T11:40:46;1.27;;;1.17;;
20294;SDS011;10306;52.128;5.208;2022-11-06T11:45:41;3.90;;;1.30;;
20294;SDS011;10306;52.128;5.208;2022-11-06T11:48:12;4.53;;;1.60;;
20294;SDS011;10306;52.128;5.208;2022-11-06T11:50:38;3.60;;;1.00;;
20294;SDS011;10306;52.128;5.208;2022-11-06T11:53:17;0.90;;;0.90;;
20294;SDS011;10306;52.128;5.208;2022-11-06T11:55:44;3.27;;;1.30;;
20294;SDS011;10306;52.128;5.208;2022-11-06T11:58:18;2.50;;;1.40;;
20294;SDS011;10306;52.128;5.208;2022-11-06T12:00:53;2.23;;;1.20;;
20294;SDS011;10306;52.128;5.208;2022-11-06T12:03:19;1.33;;;1.33;;
20294;SDS011;10306;52.128;5.208;2022-11-06T12:05:46;1.13;;;1.13;;
20294;SDS011;10306;52.128;5.208;2022-11-06T12:08:13;2.77;;;1.20;;
20294;SDS011;10306;52.128;5.208;2022-11-06T12:10:46;1.77;;;1.30;;
20294;SDS011;10306;52.128;5.208;2022-11-06T12:15:55;1.47;;;1.07;;
20294;SDS011;10306;52.128;5.208;2022-11-06T12:18:23;2.10;;;1.43;;
20294;SDS011;10306;52.128;5.208;2022-11-06T12:26:10;3.63;;;1.37;;
20294;SDS011;10306;52.128;5.208;2022-11-06T12:28:36;2.50;;;1.40;;
20294;SDS011;10306;52.128;5.208;2022-11-06T12:31:08;2.40;;;1.37;;
20294;SDS011;10306;52.128;5.208;2022-11-06T12:33:36;1.97;;;1.30;;
20294;SDS011;10306;52.128;5.208;2022-11-06T12:36:06;3.73;;;1.40;;
20294;SDS011;10306;52.128;5.208;2022-11-06T12:51:29;1.03;;;1.00;;
20294;SDS011;10306;52.128;5.208;2022-11-06T12:54:14;3.90;;;1.30;;
20294;SDS011;10306;52.128;5.208;2022-11-06T12:59:34;1.13;;;1.00;;
20294;SDS011;10306;52.128;5.208;2022-11-06T13:02:22;1.50;;;1.40;;
20294;SDS011;10306;52.128;5.208;2022-11-06T13:10:32;2.27;;;1.40;;
20294;SDS011;10306;52.128;5.208;2022-11-06T13:13:23;1.87;;;1.30;;
20294;SDS011;10306;52.128;5.208;2022-11-06T13:15:59;7.27;;;1.50;;
20294;SDS011;10306;52.128;5.208;2022-11-06T13:18:33;1.67;;;1.20;;
20294;SDS011;10306;52.128;5.208;2022-11-06T13:21:02;1.80;;;1.40;;
20294;SDS011;10306;52.128;5.208;2022-11-06T13:23:36;1.40;;;1.40;;
20294;SDS011;10306;52.128;5.208;2022-11-06T13:26:08;2.97;;;1.07;;
20294;SDS011;10306;52.128;5.208;2022-11-06T13:28:44;4.40;;;1.40;;
20294;SDS011;10306;52.128;5.208;2022-11-06T13:31:12;1.50;;;1.13;;
20294;SDS011;10306;52.128;5.208;2022-11-06T13:33:46;2.17;;;1.43;;
20294;SDS011;10306;52.128;5.208;2022-11-06T13:36:12;2.50;;;1.13;;
20294;SDS011;10306;52.128;5.208;2022-11-06T13:38:40;2.77;;;1.20;;
20294;SDS011;10306;52.128;5.208;2022-11-06T13:41:18;2.93;;;1.40;;
20294;SDS011;10306;52.128;5.208;2022-11-06T13:43:47;4.70;;;1.83;;
20294;SDS011;10306;52.128;5.208;2022-11-06T13:48:49;1.90;;;1.50;;
20294;SDS011;10306;52.128;5.208;2022-11-06T13:58:57;1.90;;;1.80;;
20294;SDS011;10306;52.128;5.208;2022-11-06T14:01:36;1.60;;;1.50;;
20294;SDS011;10306;52.128;5.208;2022-11-06T14:06:40;1.43;;;1.30;;
20294;SDS011;10306;52.128;5.208;2022-11-06T14:09:17;2.07;;;1.40;;
20294;SDS011;10306;52.128;5.208;2022-11-06T14:11:49;2.10;;;1.43;;
20294;SDS011;10306;52.128;5.208;2022-11-06T14:16:49;5.53;;;2.33;;
20294;SDS011;10306;52.128;5.208;2022-11-06T14:19:31;4.90;;;1.67;;
20294;SDS011;10306;52.128;5.208;2022-11-06T14:22:16;2.37;;;1.53;;
20294;SDS011;10306;52.128;5.208;2022-11-06T14:24:46;2.93;;;1.50;;
20294;SDS011;10306;52.128;5.208;2022-11-06T14:28:01;1.93;;;1.57;;
20294;SDS011;10306;52.128;5.208;2022-11-06T14:34:56;2.37;;;1.63;;
20294;SDS011;10306;52.128;5.208;2022-11-06T14:42:36;4.07;;;1.97;;
20294;SDS011;10306;52.128;5.208;2022-11-06T14:45:16;2.47;;;1.37;;
20294;SDS011;10306;52.128;5.208;2022-11-06T14:53:17;2.13;;;1.70;;
20294;SDS011;10306;52.128;5.208;2022-11-06T14:55:45;1.53;;;1.40;;
20294;SDS011;10306;52.128;5.208;2022-11-06T14:58:23;1.97;;;1.70;;
20294;SDS011;10306;52.128;5.208;2022-11-06T15:00:52;4.47;;;1.90;;
20294;SDS011;10306;52.128;5.208;2022-11-06T15:03:20;1.43;;;1.43;;
20294;SDS011;10306;52.128;5.208;2022-11-06T15:05:47;2.63;;;1.37;;
20294;SDS011;10306;52.128;5.208;2022-11-06T15:08:30;1.57;;;1.50;;
20294;SDS011;10306;52.128;5.208;2022-11-06T15:10:59;5.30;;;1.67;;
20294;SDS011;10306;52.128;5.208;2022-11-06T15:13:25;4.20;;;2.03;;
20294;SDS011;10306;52.128;5.208;2022-11-06T15:15:53;3.00;;;1.80;;
20294;SDS011;10306;52.128;5.208;2022-11-06T15:18:21;2.20;;;1.47;;
20294;SDS011;10306;52.128;5.208;2022-11-06T15:20:54;5.50;;;1.87;;
20294;SDS011;10306;52.128;5.208;2022-11-06T15:23:22;2.60;;;1.67;;
20294;SDS011;10306;52.128;5.208;2022-11-06T15:26:03;5.23;;;1.50;;
20294;SDS011;10306;52.128;5.208;2022-11-06T15:31:28;1.73;;;1.57;;
20294;SDS011;10306;52.128;5.208;2022-11-06T15:33:58;2.73;;;1.50;;
20294;SDS011;10306;52.128;5.208;2022-11-06T15:36:25;3.93;;;2.10;;
20294;SDS011;10306;52.128;5.208;2022-11-06T15:38:51;3.10;;;1.87;;
20294;SDS011;10306;52.128;5.208;2022-11-06T15:41:22;5.07;;;2.10;;
20294;SDS011;10306;52.128;5.208;2022-11-06T15:43:49;3.10;;;1.77;;
20294;SDS011;10306;52.128;5.208;2022-11-06T15:46:25;3.63;;;1.97;;
20294;SDS011;10306;52.128;5.208;2022-11-06T15:49:04;1.53;;;1.43;;
20294;SDS011;10306;52.128;5.208;2022-11-06T15:51:31;2.30;;;2.10;;
20294;SDS011;10306;52.128;5.208;2022-11-06T15:53:57;3.87;;;2.00;;
20294;SDS011;10306;52.128;5.208;2022-11-06T15:56:24;5.50;;;2.00;;
20294;SDS011;10306;52.128;5.208;2022-11-06T15:59:04;2.83;;;2.00;;
20294;SDS011;10306;52.128;5.208;2022-11-06T16:01:31;2.33;;;2.13;;
20294;SDS011;10306;52.128;5.208;2022-11-06T16:03:58;2.07;;;1.97;;
20294;SDS011;10306;52.128;5.208;2022-11-06T16:06:24;4.53;;;2.60;;
20294;SDS011;10306;52.128;5.208;2022-11-06T16:08:51;3.27;;;2.00;;
20294;SDS011;10306;52.128;5.208;2022-11-06T16:11:17;1.97;;;1.87;;
20294;SDS011;10306;52.128;5.208;2022-11-06T16:13:44;7.50;;;3.30;;
20294;SDS011;10306;52.128;5.208;2022-11-06T16:18:55;1.70;;;1.70;;
20294;SDS011;10306;52.128;5.208;2022-11-06T16:21:21;1.63;;;1.60;;
20294;SDS011;10306;52.128;5.208;2022-11-06T16:23:50;2.40;;;1.90;;
20294;SDS011;10306;52.128;5.208;2022-11-06T16:26:18;3.13;;;1.90;;
20294;SDS011;10306;52.128;5.208;2022-11-06T16:28:47;3.00;;;2.80;;
20294;SDS011;10306;52.128;5.208;2022-11-06T16:31:20;3.83;;;1.80;;
20294;SDS011;10306;52.128;5.208;2022-11-06T16:33:57;2.37;;;2.27;;
20294;SDS011;10306;52.128;5.208;2022-11-06T16:36:24;3.33;;;1.93;;
20294;SDS011;10306;52.128;5.208;2022-11-06T16:38:51;2.10;;;2.00;;
20294;SDS011;10306;52.128;5.208;2022-11-06T16:41:35;3.47;;;3.17;;
20294;SDS011;10306;52.128;5.208;2022-11-06T16:45:06;5.47;;;2.70;;
20294;SDS011;10306;52.128;5.208;2022-11-06T16:49:53;3.47;;;2.13;;
20294;SDS011;10306;52.128;5.208;2022-11-06T16:57:20;2.87;;;2.67;;
20294;SDS011;10306;52.128;5.208;2022-11-06T16:59:57;2.10;;;2.00;;
20294;SDS011;10306;52.128;5.208;2022-11-06T17:02:25;2.50;;;2.40;;
20294;SDS011;10306;52.128;5.208;2022-11-06T17:05:04;3.30;;;3.10;;
20294;SDS011;10306;52.128;5.208;2022-11-06T17:07:31;2.87;;;2.77;;